Time;durP1;ratioP1;P1;durP2;ratioP2;P2;SDS_P1;SDS_P2;PMS_P1;PMS_P2;Temp;Humidity;BMP_temperature;BMP_pressure;BME280_temperature;BME280_humidity;BME280_pressure;Samples;Min_cycle;Max_cycle;Signal;HPM_P1;HPM_P2
2023/09/12 00:01:12;;;;;;;5.13;3.13;;;;;;;16.58;69.57;94818.78;5126856;27;20576;-44
2023/09/12 00:03:39;;;;;;;5.83;3.33;;;;;;;16.54;69.85;94813.16;5126848;27;20203;-44
2023/09/12 00:06:06;;;;;;;5.17;3.10;;;;;;;16.49;70.09;94818.84;5127032;27;20188;-45
2023/09/12 00:08:32;;;;;;;7.70;3.23;;;;;;;16.45;70.15;94815.00;5126486;27;20204;-44
2023/09/12 00:11:01;;;;;;;5.33;2.87;;;;;;;16.43;70.21;94816.13;5126996;27;20193;-45
2023/09/12 00:13:28;;;;;;;6.37;3.37;;;;;;;16.40;70.35;94819.03;5126553;27;20184;-45
2023/09/12 00:15:55;;;;;;;6.30;3.60;;;;;;;16.37;70.42;94822.78;5126886;27;20224;-45
2023/09/12 00:18:24;;;;;;;4.87;2.73;;;;;;;16.34;70.61;94814.56;5126285;27;20192;-46
2023/09/12 00:20:51;;;;;;;8.23;2.93;;;;;;;16.30;71.07;94820.06;5126852;27;20192;-43
2023/09/12 00:23:19;;;;;;;4.33;2.97;;;;;;;16.28;71.21;94818.66;5126601;27;20300;-42
2023/09/12 00:25:46;;;;;;;5.07;3.30;;;;;;;15.80;71.39;94750.81;5123614;27;20229;-44
2023/09/12 00:28:13;;;;;;;4.03;3.00;;;;;;;16.22;71.48;94822.69;5113049;28;20226;-44
2023/09/12 00:30:39;;;;;;;7.93;3.17;;;;;;;16.20;71.67;94822.06;5112527;28;20279;-44
2023/09/12 00:33:06;;;;;;;5.27;3.20;;;;;;;16.19;71.78;94823.03;5112933;28;20196;-44
2023/09/12 00:35:34;;;;;;;5.27;3.77;;;;;;;16.16;71.96;94823.38;5112603;28;20212;-44
2023/09/12 00:38:01;;;;;;;6.10;3.60;;;;;;;16.16;71.82;94833.69;5112572;28;20177;-44
2023/09/12 00:40:28;;;;;;;3.67;3.37;;;;;;;16.00;72.15;94811.34;5112134;28;20219;-43
2023/09/12 00:42:55;;;;;;;3.93;3.00;;;;;;;16.11;72.31;94830.00;5112687;28;20189;-43
2023/09/12 00:45:22;;;;;;;3.73;3.27;;;;;;;16.11;72.28;94835.19;5112449;28;20607;-45
2023/09/12 00:47:50;;;;;;;3.33;3.00;;;;;;;16.10;72.26;94834.34;5112309;28;20189;-44
2023/09/12 00:50:18;;;;;;;12.97;3.23;;;;;;;16.03;72.34;94829.06;5112025;28;20200;-44
2023/09/12 00:52:46;;;;;;;5.33;3.43;;;;;;;16.03;72.36;94828.25;5112418;28;20189;-44
2023/09/12 00:55:13;;;;;;;6.50;3.10;;;;;;;16.02;72.44;94826.66;5112133;28;20277;-44
2023/09/12 00:57:40;;;;;;;8.03;3.10;;;;;;;16.00;72.17;94837.13;5111875;28;20196;-43
2023/09/12 01:00:12;;;;;;;6.87;3.40;;;;;;;15.97;72.29;94844.41;5111772;28;20185;-43
2023/09/12 01:02:40;;;;;;;8.83;3.40;;;;;;;15.92;72.75;94842.31;5112189;28;20189;-44
2023/09/12 01:05:07;;;;;;;2.90;2.70;;;;;;;15.91;72.72;94837.34;5111897;28;20349;-43
2023/09/12 01:07:34;;;;;;;4.20;3.60;;;;;;;15.88;72.64;94840.25;5111720;28;20196;-43
2023/09/12 01:10:02;;;;;;;3.20;2.90;;;;;;;15.87;72.82;94843.78;5112265;28;20188;-45
2023/09/12 01:12:30;;;;;;;4.50;3.40;;;;;;;15.78;72.96;94837.88;5111432;28;20231;-43
2023/09/12 01:14:57;;;;;;;4.70;3.13;;;;;;;15.83;72.92;94842.53;5111747;28;20239;-43
2023/09/12 01:17:24;;;;;;;3.83;3.03;;;;;;;15.84;73.04;94838.97;5111586;28;20180;-41
2023/09/12 01:19:51;;;;;;;4.23;2.70;;;;;;;15.86;72.45;94845.56;5111651;28;20257;-44
2023/09/12 01:22:41;;;;;;;12.17;3.13;;;;;;;15.80;72.44;94846.22;5111504;28;20189;-41
2023/09/12 01:25:55;;;;;;;4.60;3.00;;;;;;;15.57;72.35;94820.31;5111570;28;20307;-44
2023/09/12 01:28:25;;;;;;;4.67;3.40;;;;;;;15.71;72.26;94850.59;5111705;28;20184;-42
2023/09/12 01:30:53;;;;;;;5.30;3.43;;;;;;;15.69;72.01;94852.56;5111455;27;20189;-45
2023/09/12 01:33:20;;;;;;;6.17;3.43;;;;;;;15.65;72.10;94856.41;5111306;28;20275;-44
2023/09/12 01:35:47;;;;;;;3.20;2.90;;;;;;;15.65;72.17;94853.84;5111034;28;20209;-42
2023/09/12 01:38:14;;;;;;;3.53;3.23;;;;;;;15.62;72.30;94848.97;5110563;28;20223;-42
2023/09/12 01:40:48;;;;;;;3.97;3.00;;;;;;;15.60;72.30;94850.94;5111343;28;20181;-43
2023/09/12 01:43:17;;;;;;;7.43;3.27;;;;;;;15.58;72.22;94850.28;5111585;28;20708;-42
2023/09/12 01:45:46;;;;;;;4.37;3.13;;;;;;;15.56;72.29;94847.06;5110986;28;20189;-42
2023/09/12 01:48:18;;;;;;;6.60;3.40;;;;;;;15.55;72.52;94846.28;5111333;28;20662;-41
2023/09/12 01:50:45;;;;;;;7.03;3.27;;;;;;;15.53;72.59;94850.78;5110703;28;20253;-43
2023/09/12 01:53:14;;;;;;;5.93;3.20;;;;;;;15.52;72.58;94853.53;5111583;28;20184;-42
2023/09/12 01:55:41;;;;;;;3.80;2.90;;;;;;;15.49;72.74;94848.69;5110714;28;20243;-42
2023/09/12 01:58:09;;;;;;;5.43;3.00;;;;;;;15.46;72.98;94849.03;5111120;28;20596;-43
2023/09/12 02:00:37;;;;;;;6.80;3.10;;;;;;;15.43;73.47;94851.94;5110519;28;20193;-43
2023/09/12 02:03:05;;;;;;;4.93;3.37;;;;;;;15.39;73.58;94848.88;5111049;28;20184;-43
2023/09/12 02:05:32;;;;;;;5.03;3.20;;;;;;;15.37;73.92;94853.41;5110612;28;20199;-43
2023/09/12 02:08:00;;;;;;;3.47;3.13;;;;;;;15.31;74.19;94854.84;5110765;28;20230;-44
2023/09/12 02:10:27;;;;;;;5.63;3.07;;;;;;;15.29;73.98;94863.72;5110697;28;20192;-42
2023/09/12 02:12:53;;;;;;;8.07;3.23;;;;;;;15.27;74.41;94857.91;5110464;28;20222;-42
2023/09/12 02:15:20;;;;;;;3.30;3.00;;;;;;;15.25;74.43;94852.91;5110410;28;20693;-43
2023/09/12 02:17:50;;;;;;;4.03;2.57;;;;;;;15.24;74.77;94855.63;5110186;28;20661;-42
2023/09/12 02:20:18;;;;;;;5.77;3.60;;;;;;;15.24;74.78;94859.03;5110506;28;20193;-43
2023/09/12 02:22:45;;;;;;;4.60;3.90;;;;;;;15.23;74.71;94859.97;5109987;27;20212;-44
2023/09/12 02:25:12;;;;;;;4.00;3.20;;;;;;;15.20;75.05;94850.03;5110269;28;20312;-43
2023/09/12 02:27:39;;;;;;;5.33;3.00;;;;;;;15.09;75.24;94840.03;5110457;28;20185;-44
2023/09/12 02:30:07;;;;;;;4.77;3.53;;;;;;;15.17;75.50;94858.06;5110523;28;20193;-42
2023/09/12 02:32:37;;;;;;;5.17;3.20;;;;;;;15.09;75.50;94844.38;5110218;28;20189;-45
2023/09/12 02:35:12;;;;;;;4.70;3.60;;;;;;;15.15;75.34;94859.97;5110441;28;20190;-45
2023/09/12 02:37:40;;;;;;;6.77;3.40;;;;;;;15.16;75.81;94863.41;5109920;28;20192;-44
2023/09/12 02:40:10;;;;;;;6.27;3.97;;;;;;;15.15;76.03;94865.13;5110454;28;20238;-42
2023/09/12 02:42:37;;;;;;;7.20;3.50;;;;;;;15.13;76.10;94858.56;5109623;28;20199;-42
2023/09/12 02:45:05;;;;;;;7.10;3.60;;;;;;;15.12;76.12;94860.34;5110269;28;20246;-42
2023/09/12 02:47:32;;;;;;;6.17;3.33;;;;;;;15.11;76.12;94863.03;5109956;28;20185;-43
2023/09/12 02:49:58;;;;;;;8.10;3.83;;;;;;;15.08;76.45;94859.03;5109620;28;20615;-43
2023/09/12 02:52:25;;;;;;;3.50;3.20;;;;;;;15.08;76.27;94863.38;5109527;28;20193;-43
2023/09/12 02:54:53;;;;;;;3.60;3.30;;;;;;;15.05;76.30;94862.72;5109961;28;20193;-44
2023/09/12 02:57:20;;;;;;;7.47;2.90;;;;;;;15.03;76.60;94854.38;5109626;28;20239;-42
2023/09/12 02:59:47;;;;;;;4.97;3.40;;;;;;;14.98;76.44;94851.47;5109733;28;20185;-44
2023/09/12 03:02:14;;;;;;;8.67;4.10;;;;;;;15.00;76.87;94859.84;5109702;28;20668;-44
2023/09/12 03:04:41;;;;;;;3.87;3.47;;;;;;;14.99;76.86;94852.28;5109320;28;20566;-43
2023/09/12 03:07:08;;;;;;;4.03;3.63;;;;;;;14.98;76.75;94859.22;5109883;28;20630;-43
2023/09/12 03:09:35;;;;;;;6.40;3.87;;;;;;;14.97;76.84;94862.72;5109365;28;20189;-43
2023/09/12 03:12:04;;;;;;;5.37;3.87;;;;;;;14.95;77.25;94862.09;5109752;28;20200;-44
2023/09/12 03:14:30;;;;;;;3.93;3.60;;;;;;;14.86;77.12;94847.59;5109489;28;20196;-42
2023/09/12 03:16:57;;;;;;;9.03;4.33;;;;;;;14.91;77.40;94857.41;5109555;28;20285;-43
2023/09/12 03:19:24;;;;;;;13.43;3.90;;;;;;;14.75;77.84;94835.03;5109277;28;20207;-43
2023/09/12 03:21:51;;;;;;;4.80;3.43;;;;;;;14.85;77.76;94864.00;5109293;28;20223;-42
2023/09/12 03:24:18;;;;;;;4.77;3.80;;;;;;;14.86;77.96;94854.53;5109023;28;20614;-43
2023/09/12 03:26:45;;;;;;;11.97;3.90;;;;;;;14.85;77.94;94866.56;5109510;28;20279;-43
2023/09/12 03:29:13;;;;;;;6.10;2.97;;;;;;;14.85;78.02;94864.00;5109386;28;20216;-44
2023/09/12 03:31:40;;;;;;;6.13;3.63;;;;;;;14.84;77.94;94864.16;5109250;28;20200;-44
2023/09/12 03:34:07;;;;;;;11.37;4.03;;;;;;;14.81;77.99;94865.31;5109060;28;20200;-43
2023/09/12 03:36:34;;;;;;;4.97;3.43;;;;;;;14.81;78.10;94865.31;5109744;28;20219;-46
2023/09/12 03:39:01;;;;;;;5.77;3.30;;;;;;;14.79;77.87;94869.78;5109985;28;20185;-44
2023/09/12 03:41:27;;;;;;;5.60;3.40;;;;;;;14.75;78.06;94866.72;5109204;28;20185;-44
2023/09/12 03:43:55;;;;;;;5.40;4.07;;;;;;;14.74;77.75;94867.69;5109690;28;20192;-46
2023/09/12 03:46:23;;;;;;;9.80;3.50;;;;;;;14.24;78.03;94808.53;5109064;28;20602;-43
2023/09/12 03:48:50;;;;;;;5.10;3.30;;;;;;;14.57;77.92;94839.53;5109286;28;20740;-45
2023/09/12 03:51:17;;;;;;;7.50;3.43;;;;;;;14.70;78.05;94870.75;5109120;28;20200;-44
2023/09/12 03:53:44;;;;;;;9.97;2.93;;;;;;;14.67;77.86;94874.44;5109565;28;20181;-44
2023/09/12 03:56:12;;;;;;;7.67;4.00;;;;;;;14.66;77.80;94869.44;5109206;28;20236;-43
2023/09/12 03:58:39;;;;;;;7.47;3.83;;;;;;;14.64;77.77;94872.19;5109142;28;20661;-42
2023/09/12 04:01:05;;;;;;;7.70;3.70;;;;;;;14.63;77.78;94874.91;5109517;28;20195;-42
2023/09/12 04:03:33;;;;;;;8.43;3.90;;;;;;;14.08;78.36;94795.66;5112873;28;20603;-43
2023/09/12 04:06:00;;;;;;;8.13;3.87;;;;;;;14.54;78.64;94871.50;5112820;27;20189;-43
2023/09/12 04:08:27;;;;;;;4.97;3.63;;;;;;;14.50;78.83;94878.72;5113445;28;20189;-44
2023/09/12 04:10:54;;;;;;;3.67;3.20;;;;;;;14.50;79.42;94872.78;5112557;28;20200;-42
2023/09/12 04:13:21;;;;;;;4.37;3.73;;;;;;;14.49;79.55;94879.72;5112853;28;20344;-43
2023/09/12 04:15:47;;;;;;;8.10;3.50;;;;;;;14.50;79.73;94872.78;5112654;28;20255;-43
2023/09/12 04:18:14;;;;;;;4.20;3.80;;;;;;;14.52;79.57;94874.25;5112784;28;20236;-43
2023/09/12 04:20:42;;;;;;;4.07;3.60;;;;;;;14.54;79.54;94874.88;5112841;27;20249;-45
2023/09/12 04:23:09;;;;;;;7.10;3.87;;;;;;;14.54;79.77;94882.59;5112783;28;20177;-43
2023/09/12 04:25:36;;;;;;;6.47;3.67;;;;;;;14.54;79.58;94876.66;5112680;27;20278;-48
2023/09/12 04:28:03;;;;;;;6.00;3.83;;;;;;;14.60;79.64;94877.81;5112685;28;20280;-45
2023/09/12 04:30:30;;;;;;;5.83;3.27;;;;;;;14.64;79.61;94879.13;5112260;28;20238;-44
2023/09/12 04:32:57;;;;;;;6.47;3.80;;;;;;;14.66;79.45;94883.13;5112308;28;20196;-43
2023/09/12 04:35:25;;;;;;;13.90;4.00;;;;;;;14.72;79.52;94886.84;5112826;28;20192;-44
2023/09/12 04:37:53;;;;;;;7.57;4.57;;;;;;;14.76;79.39;94885.56;5112730;28;20220;-45
2023/09/12 04:40:19;;;;;;;6.17;4.20;;;;;;;14.80;79.53;94879.94;5112648;28;20189;-43
2023/09/12 04:42:46;;;;;;;5.27;3.80;;;;;;;14.88;79.14;94884.28;5112289;28;20185;-44
2023/09/12 04:45:13;;;;;;;10.13;4.33;;;;;;;14.95;79.18;94892.19;5112192;28;20203;-42
2023/09/12 04:47:40;;;;;;;11.03;4.60;;;;;;;15.00;79.03;94884.78;5111975;28;20700;-43
2023/09/12 04:50:07;;;;;;;5.80;3.90;;;;;;;15.06;78.75;94892.66;5112153;28;20638;-42
2023/09/12 04:52:34;;;;;;;16.37;5.13;;;;;;;15.13;78.11;94890.28;5112223;28;20185;-44
2023/09/12 04:55:03;;;;;;;11.30;4.97;;;;;;;15.20;78.02;94895.59;5111940;28;20520;-44
2023/09/12 04:57:30;;;;;;;19.07;4.83;;;;;;;15.27;77.73;94887.03;5112160;28;20252;-45
2023/09/12 04:59:58;;;;;;;19.10;5.30;;;;;;;15.40;77.20;94893.47;5111762;28;20657;-43
2023/09/12 05:02:25;;;;;;;22.60;5.27;;;;;;;15.52;76.65;94892.19;5112091;28;20234;-43
2023/09/12 05:04:51;;;;;;;15.03;5.27;;;;;;;15.70;76.08;94889.44;5111822;28;20197;-43
2023/09/12 05:07:18;;;;;;;13.67;5.63;;;;;;;15.96;74.99;94900.34;5112111;28;20204;-42
2023/09/12 05:09:45;;;;;;;14.53;5.40;;;;;;;16.17;73.84;94899.00;5111448;28;20200;-45
2023/09/12 05:12:13;;;;;;;12.20;5.60;;;;;;;16.45;72.65;94899.34;5111559;28;20177;-42
2023/09/12 05:14:40;;;;;;;14.67;5.60;;;;;;;16.70;71.71;94894.88;5111453;28;20181;-43
2023/09/12 05:17:07;;;;;;;9.37;5.20;;;;;;;17.01;70.73;94892.28;5111650;28;20228;-45
2023/09/12 05:19:33;;;;;;;15.87;5.33;;;;;;;17.05;69.72;94858.19;5111377;28;20622;-43
2023/09/12 05:22:00;;;;;;;8.73;5.43;;;;;;;17.51;68.53;94889.16;5111635;28;20636;-43
2023/09/12 05:24:27;;;;;;;9.07;5.80;;;;;;;17.83;67.23;94900.19;5111529;28;20196;-44
2023/09/12 05:26:54;;;;;;;10.17;4.90;;;;;;;18.14;65.72;94899.25;5111358;28;20192;-44
2023/09/12 05:29:22;;;;;;;13.07;5.43;;;;;;;18.36;65.08;94900.13;5111325;28;20288;-42
2023/09/12 05:31:49;;;;;;;14.00;6.23;;;;;;;18.59;63.97;94895.59;5111087;28;20197;-45
2023/09/12 05:34:15;;;;;;;8.47;6.03;;;;;;;18.79;62.80;94901.06;5111267;28;20253;-44
2023/09/12 05:36:42;;;;;;;7.00;5.33;;;;;;;19.06;62.01;94904.72;5111245;27;20212;-44
2023/09/12 05:39:13;;;;;;;9.33;6.50;;;;;;;19.27;61.63;94907.31;5111493;28;20621;-44
2023/09/12 05:41:40;;;;;;;7.53;5.53;;;;;;;19.50;61.08;94907.09;5110881;28;20196;-42
2023/09/12 05:44:07;;;;;;;10.97;4.47;;;;;;;19.65;59.92;94909.66;5111070;28;20207;-42
2023/09/12 05:46:35;;;;;;;10.17;5.83;;;;;;;19.68;59.75;94908.44;5110569;28;20195;-43
2023/09/12 05:49:04;;;;;;;9.73;5.00;;;;;;;19.59;59.64;94887.00;5111101;28;20204;-45
2023/09/12 05:51:33;;;;;;;6.37;4.93;;;;;;;19.89;58.83;94907.59;5111029;28;20189;-42
2023/09/12 05:54:03;;;;;;;8.27;4.70;;;;;;;19.97;58.32;94912.66;5110776;28;20204;-44
2023/09/12 05:56:31;;;;;;;9.90;5.77;;;;;;;20.06;58.39;94895.94;5110703;28;20205;-46
2023/09/12 05:58:58;;;;;;;10.73;5.13;;;;;;;20.24;57.68;94911.81;5110931;28;20577;-46
2023/09/12 06:01:26;;;;;;;16.30;5.03;;;;;;;20.50;57.10;94907.75;5110787;28;20197;-44
2023/09/12 06:03:54;;;;;;;8.67;5.57;;;;;;;20.79;57.11;94907.47;5110831;28;20315;-44
2023/09/12 06:06:22;;;;;;;11.27;5.40;;;;;;;21.17;56.33;94911.38;5110287;28;20196;-43
2023/09/12 06:08:49;;;;;;;13.60;5.45;;;;;;;21.46;54.29;94900.63;5110595;27;20658;-44
2023/09/12 06:11:16;;;;;;;13.13;5.47;;;;;;;21.53;54.09;94905.81;5110691;28;20181;-43
2023/09/12 06:13:42;;;;;;;14.52;5.43;;;;;;;21.62;53.89;94907.22;5110298;28;20205;-44
2023/09/12 06:16:09;;;;;;;14.13;6.43;;;;;;;21.84;53.11;94923.44;5110650;28;20269;-45
2023/09/12 06:18:36;;;;;;;7.65;5.60;;;;;;;21.91;52.43;94910.41;5110410;28;20188;-45
2023/09/12 06:21:08;;;;;;;13.40;6.63;;;;;;;21.95;52.57;94914.22;5110645;28;20254;-44
2023/09/12 06:23:35;;;;;;;13.32;5.68;;;;;;;22.28;51.61;94922.81;5110204;28;20255;-43
2023/09/12 06:26:01;;;;;;;13.18;6.38;;;;;;;22.31;51.49;94926.78;5109964;28;20758;-43
2023/09/12 06:28:29;;;;;;;11.35;5.82;;;;;;;22.41;51.54;94921.97;5110457;28;20185;-44
2023/09/12 06:30:57;;;;;;;17.90;6.05;;;;;;;22.48;51.11;94927.16;5110176;28;20632;-43
2023/09/12 06:33:24;;;;;;;12.55;6.28;;;;;;;22.56;51.19;94933.94;5110132;28;20209;-45
2023/09/12 06:35:52;;;;;;;14.32;5.90;;;;;;;22.64;50.33;94921.47;5110243;27;20642;-44
2023/09/12 06:38:21;;;;;;;10.45;6.25;;;;;;;22.76;50.54;94934.69;5110299;28;20649;-42
2023/09/12 06:40:48;;;;;;;9.63;6.57;;;;;;;22.88;49.98;94930.38;5110073;28;20196;-43
2023/09/12 06:43:15;;;;;;;16.73;6.40;;;;;;;23.06;49.47;94931.53;5109684;28;20192;-43
2023/09/12 06:45:42;;;;;;;11.95;6.15;;;;;;;23.20;49.43;94931.28;5110179;28;20220;-45
2023/09/12 06:48:09;;;;;;;13.63;5.88;;;;;;;23.41;49.13;94934.56;5110034;28;20200;-45
2023/09/12 06:50:37;;;;;;;10.75;5.57;;;;;;;23.61;48.08;94931.78;5110307;28;20207;-43
2023/09/12 06:53:11;;;;;;;12.82;5.80;;;;;;;23.65;47.51;94933.00;5108772;28;20216;-44
2023/09/12 06:55:39;;;;;;;15.25;6.45;;;;;;;23.57;47.81;94928.81;5110388;28;20272;-44
2023/09/12 06:58:07;;;;;;;11.57;5.05;;;;;;;23.63;47.47;94930.56;5110166;28;20952;-44
2023/09/12 07:00:34;;;;;;;11.00;6.40;;;;;;;23.74;47.00;94940.34;5109670;28;20191;-44
2023/09/12 07:03:01;;;;;;;8.48;6.57;;;;;;;23.83;46.96;94937.47;5109782;28;20189;-46
2023/09/12 07:05:28;;;;;;;10.40;5.75;;;;;;;23.91;46.16;94935.38;5109889;28;20192;-44
2023/09/12 07:07:54;;;;;;;9.38;6.53;;;;;;;23.90;46.78;94936.41;5109969;28;20185;-45
2023/09/12 07:10:22;;;;;;;14.50;6.18;;;;;;;24.02;46.38;94941.75;5109689;28;20201;-44
2023/09/12 07:12:50;;;;;;;13.90;5.50;;;;;;;24.26;46.43;94940.09;5109657;28;20177;-45
2023/09/12 07:15:17;;;;;;;13.30;5.95;;;;;;;24.32;46.18;94939.25;5109516;28;20621;-45
2023/09/12 07:17:43;;;;;;;20.25;5.75;;;;;;;24.49;45.23;94942.91;5109537;28;20220;-45
2023/09/12 07:20:11;;;;;;;14.70;5.72;;;;;;;24.59;45.28;94933.75;5109335;28;20189;-45
2023/09/12 07:22:40;;;;;;;11.00;5.88;;;;;;;24.65;45.25;94938.09;5109757;28;20185;-44
2023/09/12 07:25:09;;;;;;;14.38;6.28;;;;;;;24.44;44.71;94905.38;5109287;28;20697;-43
2023/09/12 07:27:36;;;;;;;12.57;6.18;;;;;;;24.31;44.67;94884.53;5109695;28;20203;-47
2023/09/12 07:30:04;;;;;;;10.70;5.97;;;;;;;24.64;44.94;94945.16;5109433;28;20193;-45
2023/09/12 07:32:31;;;;;;;10.68;6.45;;;;;;;24.75;44.11;94946.25;5109651;28;20197;-45
2023/09/12 07:34:58;;;;;;;15.63;6.45;;;;;;;24.79;44.40;94950.03;5109175;28;20627;-45
2023/09/12 07:37:25;;;;;;;11.00;6.18;;;;;;;24.76;44.70;94935.56;5112532;28;20224;-46
2023/09/12 07:39:51;;;;;;;14.43;5.93;;;;;;;24.97;43.83;94952.59;5113712;28;20188;-45
2023/09/12 07:42:22;;;;;;;10.40;5.40;;;;;;;25.09;43.80;94949.28;5113443;27;20185;-44
2023/09/12 07:44:49;;;;;;;11.77;5.47;;;;;;;25.22;43.13;94939.44;5113606;28;20665;-45
2023/09/12 07:47:17;;;;;;;7.13;5.82;;;;;;;25.47;43.20;94944.50;5113633;28;20275;-46
2023/09/12 07:49:44;;;;;;;13.18;6.28;;;;;;;25.67;42.62;94933.72;5113482;28;20189;-45
2023/09/12 07:52:11;;;;;;;10.20;5.90;;;;;;;25.72;42.38;94933.84;5113291;28;20193;-45
2023/09/12 07:54:37;;;;;;;9.80;5.32;;;;;;;25.77;42.55;94931.34;5113414;28;20189;-46
2023/09/12 07:57:05;;;;;;;11.02;5.75;;;;;;;25.89;41.84;94923.53;5112866;28;20250;-46
2023/09/12 07:59:31;;;;;;;9.05;5.40;;;;;;;26.00;41.34;94935.84;5113383;28;20189;-44
2023/09/12 08:01:58;;;;;;;8.30;5.63;;;;;;;26.12;41.55;94935.84;5112982;28;20189;-44
2023/09/12 08:04:26;;;;;;;10.82;5.75;;;;;;;26.14;41.73;94933.00;5113246;28;20181;-44
2023/09/12 08:06:53;;;;;;;10.45;5.28;;;;;;;26.24;41.15;94928.75;5112961;28;20212;-43
2023/09/12 08:09:20;;;;;;;11.63;4.80;;;;;;;26.57;40.67;94923.97;5113273;28;20262;-44
2023/09/12 08:11:47;;;;;;;8.95;5.55;;;;;;;26.85;40.27;94929.22;5113390;28;20211;-45
2023/09/12 08:14:13;;;;;;;7.07;4.70;;;;;;;27.07;40.07;94941.72;5112861;28;20607;-46
2023/09/12 08:16:40;;;;;;;9.50;5.05;;;;;;;27.07;39.39;94939.09;5112887;28;20193;-46
2023/09/12 08:19:07;;;;;;;10.52;5.32;;;;;;;27.04;39.92;94931.69;5113099;28;20189;-44
2023/09/12 08:21:35;;;;;;;9.27;5.28;;;;;;;27.17;38.94;94926.19;5113226;28;20227;-45
2023/09/12 08:24:02;;;;;;;13.02;5.47;;;;;;;27.16;39.12;94937.72;5112591;28;20750;-44
2023/09/12 08:26:28;;;;;;;7.05;4.57;;;;;;;27.02;38.91;94935.34;5112847;28;20225;-45
2023/09/12 08:28:55;;;;;;;11.02;4.78;;;;;;;26.91;39.05;94930.94;5112900;28;20276;-44
2023/09/12 08:31:22;;;;;;;9.35;5.30;;;;;;;27.02;39.03;94934.53;5112655;28;20189;-44
2023/09/12 08:33:48;;;;;;;9.55;5.47;;;;;;;26.94;39.32;94929.66;5112495;28;20669;-45
2023/09/12 08:36:15;;;;;;;18.63;5.18;;;;;;;26.84;39.48;94924.22;5112922;28;20189;-46
2023/09/12 08:38:43;;;;;;;12.68;5.28;;;;;;;26.87;38.75;94923.78;5112409;28;20309;-45
2023/09/12 08:41:10;;;;;;;10.77;5.15;;;;;;;26.82;39.03;94926.31;5112848;28;20208;-44
2023/09/12 08:43:37;;;;;;;10.85;4.70;;;;;;;26.85;39.07;94917.94;5112897;28;20549;-44
2023/09/12 08:46:04;;;;;;;12.32;5.35;;;;;;;26.86;39.11;94911.69;5112767;28;20189;-43
2023/09/12 08:48:32;;;;;;;8.70;4.55;;;;;;;27.04;39.00;94921.19;5111994;28;20618;-42
2023/09/12 08:51:00;;;;;;;12.20;5.07;;;;;;;27.06;38.48;94919.91;5112149;28;20181;-45
2023/09/12 08:53:26;;;;;;;8.77;4.75;;;;;;;27.04;38.35;94911.50;5112243;28;20185;-45
2023/09/12 08:55:55;;;;;;;10.02;4.50;;;;;;;27.15;38.30;94915.13;5112011;28;20188;-43
2023/09/12 08:58:23;;;;;;;11.93;4.47;;;;;;;27.13;37.45;94923.22;5112086;28;20225;-43
2023/09/12 09:00:50;;;;;;;6.47;3.95;;;;;;;27.08;37.82;94919.69;5112061;28;20218;-43
2023/09/12 09:03:18;;;;;;;9.95;4.50;;;;;;;27.16;37.71;94924.56;5112453;28;20201;-46
2023/09/12 09:05:46;;;;;;;6.55;4.43;;;;;;;27.01;37.97;94906.69;5112116;28;20211;-44
2023/09/12 09:08:14;;;;;;;7.63;4.05;;;;;;;27.17;37.77;94921.75;5112075;28;20197;-43
2023/09/12 09:10:57;;;;;;;6.72;4.13;;;;;;;27.35;37.41;94918.09;5111800;27;20185;-44
2023/09/12 09:13:24;;;;;;;7.38;4.32;;;;;;;27.51;37.36;94913.91;5111794;28;20239;-45
2023/09/12 09:16:10;;;;;;;8.45;3.75;;;;;;;27.65;36.53;94915.19;5111418;28;20201;-44
2023/09/12 09:18:51;;;;;;;11.02;4.45;;;;;;;27.73;36.48;94909.56;5111646;28;20216;-45
2023/09/12 09:21:19;;;;;;;8.50;4.20;;;;;;;27.79;36.69;94907.81;5111934;28;20237;-43
2023/09/12 09:23:47;;;;;;;8.77;3.97;;;;;;;27.88;36.23;94908.19;5112151;28;20181;-44
2023/09/12 09:26:15;;;;;;;10.88;4.13;;;;;;;27.82;36.71;94902.06;5111453;28;20256;-44
2023/09/12 09:28:41;;;;;;;5.50;4.05;;;;;;;27.70;36.38;94904.75;5111885;28;20669;-45
2023/09/12 09:31:12;;;;;;;8.32;4.15;;;;;;;27.75;36.63;94893.53;5111120;28;20626;-45
2023/09/12 09:33:40;;;;;;;11.10;3.88;;;;;;;27.81;36.28;94889.97;5111708;28;20201;-44
2023/09/12 09:36:09;;;;;;;8.05;3.97;;;;;;;27.83;36.43;94893.16;5111406;28;20189;-46
2023/09/12 09:38:36;;;;;;;10.55;3.92;;;;;;;27.78;36.70;94871.25;5111599;28;20213;-45
2023/09/12 09:41:06;;;;;;;5.45;3.80;;;;;;;27.78;36.73;94887.81;5111052;28;20226;-45
2023/09/12 09:43:34;;;;;;;11.60;4.15;;;;;;;27.79;37.05;94886.78;5111550;28;20198;-46
2023/09/12 09:46:02;;;;;;;6.28;3.50;;;;;;;27.81;37.15;94886.53;5110944;28;20258;-45
2023/09/12 09:48:31;;;;;;;9.07;4.03;;;;;;;27.83;36.92;94887.09;5111068;28;20227;-45
2023/09/12 09:51:02;;;;;;;8.85;4.22;;;;;;;27.74;36.60;94876.19;5110831;28;20207;-45
2023/09/12 09:53:29;;;;;;;7.18;4.05;;;;;;;27.80;36.58;94880.47;5111248;28;20589;-45
2023/09/12 09:56:09;;;;;;;8.57;4.45;;;;;;;27.82;36.55;94878.41;5111004;28;20185;-45
2023/09/12 09:58:37;;;;;;;7.75;4.30;;;;;;;27.81;36.64;94878.63;5110530;28;20236;-45
2023/09/12 10:01:07;;;;;;;6.63;4.18;;;;;;;27.73;37.06;94872.78;5110673;28;20188;-44
2023/09/12 10:03:37;;;;;;;6.95;3.70;;;;;;;27.69;36.58;94870.84;5111410;28;20177;-45
2023/09/12 10:06:06;;;;;;;4.65;3.40;;;;;;;27.68;36.50;94871.88;5110790;28;20673;-46
2023/09/12 10:08:33;;;;;;;12.25;3.53;;;;;;;27.61;36.40;94873.84;5110707;28;20185;-44
2023/09/12 10:11:00;;;;;;;6.90;3.75;;;;;;;27.60;36.80;94857.28;5110622;28;20189;-45
2023/09/12 10:13:32;;;;;;;7.10;3.92;;;;;;;27.67;36.30;94860.53;5110601;28;20722;-44
2023/09/12 10:16:04;;;;;;;5.57;3.67;;;;;;;27.68;36.38;94861.38;5110713;28;20257;-44
2023/09/12 10:18:41;;;;;;;9.60;3.75;;;;;;;27.60;36.59;94857.28;5110701;28;20248;-44
2023/09/12 10:21:16;;;;;;;4.50;3.65;;;;;;;27.60;36.84;94852.03;5110107;28;20253;-45
2023/09/12 10:23:45;;;;;;;6.82;3.72;;;;;;;27.32;36.85;94796.97;5110359;28;20180;-45
2023/09/12 10:26:13;;;;;;;5.93;4.07;;;;;;;27.74;37.10;94852.53;5110138;28;20228;-45
2023/09/12 10:28:41;;;;;;;4.57;3.70;;;;;;;27.82;36.45;94844.25;5110334;28;20654;-45
2023/09/12 10:31:11;;;;;;;9.07;3.35;;;;;;;27.92;36.38;94839.13;5110423;28;20185;-44
2023/09/12 10:33:39;;;;;;;6.20;2.80;;;;;;;27.98;36.31;94845.25;5110794;28;20199;-45
2023/09/12 10:36:09;;;;;;;7.25;3.70;;;;;;;27.99;36.50;94847.63;5110638;28;20196;-47
2023/09/12 10:38:43;;;;;;;7.30;3.10;;;;;;;27.87;36.23;94835.63;5110549;27;20308;-46
2023/09/12 10:41:13;;;;;;;7.45;3.08;;;;;;;27.83;36.90;94837.94;5110325;28;20189;-43
2023/09/12 10:43:41;;;;;;;8.13;3.47;;;;;;;27.71;36.89;94822.22;5110416;28;20189;-44
2023/09/12 10:46:08;;;;;;;7.13;3.22;;;;;;;27.81;36.86;94839.22;5109809;28;20696;-46
2023/09/12 10:48:39;;;;;;;9.68;3.50;;;;;;;27.89;36.42;94828.28;5110392;28;20189;-45
2023/09/12 10:51:08;;;;;;;5.75;4.05;;;;;;;27.83;37.01;94827.44;5109734;28;20178;-44
2023/09/12 10:53:35;;;;;;;4.75;3.58;;;;;;;27.85;36.66;94825.38;5109991;28;20205;-46
2023/09/12 10:56:15;;;;;;;4.90;3.35;;;;;;;27.84;36.46;94821.13;5110341;28;20184;-43
2023/09/12 10:59:15;;;;;;;6.22;3.00;;;;;;;27.85;36.60;94817.47;5110248;28;20692;-46
2023/09/12 11:01:45;;;;;;;5.68;3.10;;;;;;;27.83;36.29;94818.75;5109916;28;20189;-45
2023/09/12 11:04:43;;;;;;;12.07;3.60;;;;;;;27.74;36.15;94806.03;5109986;28;20603;-45
2023/09/12 11:07:32;;;;;;;5.43;3.20;;;;;;;27.82;36.36;94806.66;5067200;28;20194;-44
2023/09/12 11:10:22;;;;;;;5.00;3.13;;;;;;;27.87;36.36;94806.72;5066676;28;20246;-44
2023/09/12 11:12:50;;;;;;;5.85;3.33;;;;;;;28.00;36.32;94803.72;5066685;28;20282;-44
2023/09/12 11:15:18;;;;;;;5.38;3.00;;;;;;;28.06;36.83;94808.00;5066757;28;20290;-44
2023/09/12 11:17:46;;;;;;;4.03;2.92;;;;;;;28.11;36.50;94807.28;5066651;28;20222;-44
2023/09/12 11:20:16;;;;;;;7.72;3.78;;;;;;;28.15;36.47;94808.38;5066737;28;20301;-44
2023/09/12 11:22:45;;;;;;;6.55;3.33;;;;;;;28.13;36.31;94802.56;5066556;28;20194;-46
2023/09/12 11:25:19;;;;;;;6.95;3.33;;;;;;;28.09;36.65;94804.91;5066580;28;20606;-44
2023/09/12 11:28:03;;;;;;;5.28;3.60;;;;;;;28.15;36.64;94803.94;5066626;28;20674;-45
2023/09/12 11:30:31;;;;;;;5.20;3.10;;;;;;;28.15;36.25;94798.69;5066700;28;20194;-45
2023/09/12 11:32:59;;;;;;;8.85;3.30;;;;;;;28.14;35.94;94804.16;5066551;28;20256;-45
2023/09/12 11:35:29;;;;;;;6.22;3.63;;;;;;;28.22;36.17;94795.84;5066604;28;20197;-45
2023/09/12 11:37:57;;;;;;;7.55;4.28;;;;;;;28.25;36.24;94792.72;5066524;28;20178;-44